KDIK

Dickinson - Theodore Roosevelt Regional Airport

Dickinson, North Dakota, USA
METAR KDIK 212256Z AUTO 22007KT 10SM SCT080 23/03 A3023 RMK AO2 SLP231 T02280028
Observed Flight Rules
Aug-21 @ 22:56 UTC (51 minutes ago) Visual Flight Rules
Wind Visibility Clouds
220° at 7 knots 10 miles
  • Scattered at 8,000' AGL
Temperatures Readings
Current 23°C / 73°F
Dewpoint 3°C / 37°F
Humidity 27%
Altimeter 30.23" Hg
Pressure 1023.1 hPa
Elevation 788
METAR KDIK 212256Z AUTO 22007KT 10SM SCT080 23/03 A3023 RMK AO2 SLP231 T02280028
Observed Flight Rules
Aug-21 @ 22:56 UTC
(51 minutes ago)
VFR
Wind Visibility
220° at 7 knots 10 miles
Clouds
  • Scattered at 8,000' AGL
Temperature Dewpoint
23°C / 73°F 3°C / 37°F
Humidity Altimeter Pressure
27% 30.23" Hg 1023.1 hPa